createdAt,value
2018-08-04T00:00:52.229Z,4.30
2018-08-04T00:01:52.201Z,4.50
2018-08-04T00:02:52.190Z,4.30
2018-08-04T00:03:52.133Z,3.80
2018-08-04T00:04:52.097Z,4.30
2018-08-04T00:05:52.064Z,4.00
2018-08-04T00:06:52.022Z,4.50
2018-08-04T00:07:52.006Z,4.20
2018-08-04T00:08:51.960Z,4.30
2018-08-04T00:09:51.922Z,4.40
2018-08-04T00:10:51.881Z,4.20
2018-08-04T00:11:51.847Z,4.20
2018-08-04T00:12:51.833Z,4.20
2018-08-04T00:13:51.777Z,4.20
2018-08-04T00:14:51.749Z,4.10
2018-08-04T00:15:51.711Z,4.40
2018-08-04T00:16:51.679Z,4.20
2018-08-04T00:17:51.673Z,4.10
2018-08-04T00:18:51.601Z,4.30
2018-08-04T00:19:51.570Z,4.20
2018-08-04T00:20:51.534Z,4.10
2018-08-04T00:21:51.497Z,4.20
2018-08-04T00:22:51.472Z,4.20
2018-08-04T00:23:51.454Z,4.30
2018-08-04T00:24:51.396Z,4.10
2018-08-04T00:25:51.358Z,4.20
2018-08-04T00:26:51.333Z,4.00
2018-08-04T00:27:51.314Z,4.10
2018-08-04T00:28:51.257Z,4.20
2018-08-04T00:29:51.228Z,4.30
2018-08-04T00:30:51.182Z,4.40
2018-08-04T00:31:51.146Z,4.40
2018-08-04T00:32:51.142Z,4.20
2018-08-04T00:33:51.082Z,4.20
2018-08-04T00:34:51.057Z,4.10
2018-08-04T00:35:51.021Z,4.20
2018-08-04T00:36:50.977Z,4.10
2018-08-04T00:37:50.965Z,3.90
2018-08-04T00:38:50.902Z,4.10
2018-08-04T00:39:50.869Z,4.10
2018-08-04T00:40:50.837Z,4.00
2018-08-04T00:41:50.802Z,3.80
2018-08-04T00:42:50.786Z,4.30
2018-08-04T00:43:50.731Z,4.10
2018-08-04T00:44:50.696Z,4.00
2018-08-04T00:45:50.676Z,3.70
2018-08-04T00:46:50.631Z,4.00
2018-08-04T00:47:50.622Z,4.20
2018-08-04T00:48:50.561Z,4.00
2018-08-04T00:49:50.526Z,4.20
2018-08-04T00:50:50.484Z,4.20
2018-08-04T00:51:50.451Z,4.20
2018-08-04T00:52:50.442Z,4.10
2018-08-04T00:53:50.377Z,4.20
2018-08-04T00:54:50.351Z,3.90
2018-08-04T00:55:50.315Z,4.00
2018-08-04T00:56:50.281Z,3.80
2018-08-04T00:57:50.261Z,3.60
2018-08-04T00:58:50.214Z,3.70
2018-08-04T00:59:50.177Z,3.60
2018-08-04T01:00:50.144Z,3.70
2018-08-04T01:01:50.130Z,3.80
2018-08-04T01:02:50.066Z,3.60
2018-08-04T01:03:50.034Z,3.30
2018-08-04T01:04:50.002Z,3.70
2018-08-04T01:05:49.960Z,3.50
2018-08-04T01:06:49.960Z,3.50
2018-08-04T01:07:49.903Z,3.30
2018-08-04T01:08:49.865Z,3.60
2018-08-04T01:09:49.830Z,3.30
2018-08-04T01:10:49.796Z,3.20
2018-08-04T01:11:49.776Z,3.40
2018-08-04T01:12:49.725Z,3.20
2018-08-04T01:13:49.688Z,3.10
2018-08-04T01:14:49.648Z,3.60
2018-08-04T01:15:49.619Z,3.30
2018-08-04T01:16:49.602Z,3.60
2018-08-04T01:17:49.547Z,3.30
2018-08-04T01:18:49.519Z,3.40
2018-08-04T01:19:49.482Z,3.20
2018-08-04T01:20:49.448Z,3.10
2018-08-04T01:21:49.436Z,3.40
2018-08-04T01:22:49.372Z,3.20
2018-08-04T01:23:49.338Z,3.40
2018-08-04T01:24:49.307Z,3.40
2018-08-04T01:25:49.269Z,3.20
2018-08-04T01:26:49.269Z,3.10
2018-08-04T01:27:49.207Z,3.30
2018-08-04T01:28:49.168Z,3.20
2018-08-04T01:29:49.133Z,3.10
2018-08-04T01:30:49.105Z,3.30
2018-08-04T01:31:49.069Z,3.40
2018-08-04T01:32:49.058Z,3.20
2018-08-04T01:33:49.000Z,3.10
2018-08-04T01:34:48.967Z,3.00
2018-08-04T01:35:48.920Z,3.40
2018-08-04T01:36:48.887Z,3.00
2018-08-04T01:37:48.880Z,3.40
2018-08-04T01:38:48.826Z,3.10
2018-08-04T01:39:48.797Z,3.10
2018-08-04T01:40:48.757Z,3.30
2018-08-04T01:41:48.721Z,3.00
2018-08-04T01:42:48.708Z,2.90
2018-08-04T01:43:48.648Z,3.40
2018-08-04T01:44:48.621Z,3.30
2018-08-04T01:45:48.585Z,3.30
2018-08-04T01:46:48.542Z,3.10
2018-08-04T01:47:48.507Z,3.10
2018-08-04T01:48:48.497Z,3.50
2018-08-04T01:49:48.440Z,3.10
2018-08-04T01:50:48.413Z,3.30
2018-08-04T01:51:48.377Z,3.30
2018-08-04T01:52:48.367Z,3.00
2018-08-04T01:53:48.332Z,3.30
2018-08-04T01:54:48.275Z,3.20
2018-08-04T01:55:48.231Z,3.40
2018-08-04T01:56:48.197Z,3.00
2018-08-04T01:57:48.162Z,3.10
2018-08-04T01:58:48.159Z,3.00
2018-08-04T01:59:48.099Z,2.90
2018-08-04T02:00:48.058Z,3.10
2018-08-04T02:01:48.027Z,3.00
2018-08-04T02:02:48.023Z,3.00
2018-08-04T02:03:47.969Z,3.30
2018-08-04T02:04:47.922Z,3.20
2018-08-04T02:05:47.890Z,3.10
2018-08-04T02:06:47.849Z,2.90
2018-08-04T02:07:47.843Z,3.30
2018-08-04T02:08:47.778Z,2.90
2018-08-04T02:09:47.744Z,3.30
2018-08-04T02:10:47.717Z,3.10
2018-08-04T02:11:47.678Z,3.00
2018-08-04T02:12:47.651Z,3.20
2018-08-04T02:13:47.639Z,3.30
2018-08-04T02:14:47.572Z,3.10
2018-08-04T02:15:47.535Z,3.20
2018-08-04T02:16:47.506Z,3.00
2018-08-04T02:17:47.472Z,3.10
2018-08-04T02:18:47.460Z,2.90
2018-08-04T02:19:47.401Z,3.10
2018-08-04T02:20:47.365Z,3.10
2018-08-04T02:21:47.325Z,3.00
2018-08-04T02:22:47.298Z,3.30
2018-08-04T02:23:47.263Z,3.30
2018-08-04T02:24:47.251Z,3.10
2018-08-04T02:25:47.195Z,2.90
2018-08-04T02:26:47.153Z,3.00
2018-08-04T02:27:47.119Z,3.00
2018-08-04T02:28:47.087Z,2.90
2018-08-04T02:29:47.079Z,3.20
2018-08-04T02:30:47.020Z,3.00
2018-08-04T02:31:46.983Z,2.80
2018-08-04T02:32:46.940Z,3.10
2018-08-04T02:33:46.909Z,3.20
2018-08-04T02:34:46.912Z,3.20
2018-08-04T02:35:46.846Z,3.10
2018-08-04T02:36:46.809Z,3.20
2018-08-04T02:37:46.796Z,3.00
2018-08-04T02:38:46.735Z,3.20
2018-08-04T02:39:46.724Z,3.10
2018-08-04T02:40:46.666Z,3.20
2018-08-04T02:41:46.629Z,3.20
2018-08-04T02:42:46.601Z,3.30
2018-08-04T02:43:46.566Z,3.40
2018-08-04T02:44:46.558Z,3.20
2018-08-04T02:45:46.494Z,3.30
2018-08-04T02:46:46.456Z,3.10
2018-08-04T02:47:46.425Z,2.80
2018-08-04T02:48:46.393Z,2.70
2018-08-04T02:49:46.378Z,3.10
2018-08-04T02:50:46.314Z,3.00
2018-08-04T02:51:46.278Z,3.00
2018-08-04T02:52:46.251Z,2.90
2018-08-04T02:53:46.208Z,3.10
2018-08-04T02:54:46.206Z,2.90
2018-08-04T02:55:46.145Z,3.20
2018-08-04T02:56:46.112Z,2.80
2018-08-04T02:57:46.074Z,3.20
2018-08-04T02:58:46.032Z,2.80
2018-08-04T02:59:46.035Z,3.10
2018-08-04T03:00:45.964Z,3.40
2018-08-04T03:01:45.941Z,2.90
2018-08-04T03:02:45.896Z,2.70
2018-08-04T03:03:45.864Z,3.00
2018-08-04T03:04:45.861Z,3.00
2018-08-04T03:05:45.797Z,3.00
2018-08-04T03:06:45.765Z,3.00
2018-08-04T03:07:45.727Z,2.70
2018-08-04T03:08:45.684Z,2.90
2018-08-04T03:09:45.673Z,3.20
2018-08-04T03:10:45.612Z,2.80
2018-08-04T03:11:45.577Z,3.00
2018-08-04T03:12:45.546Z,3.20
2018-08-04T03:13:45.515Z,3.00
2018-08-04T03:14:45.505Z,2.90
2018-08-04T03:15:45.447Z,3.20
2018-08-04T03:16:45.403Z,3.10
2018-08-04T03:17:45.365Z,3.10
2018-08-04T03:18:45.357Z,3.10
2018-08-04T03:19:45.298Z,2.80
2018-08-04T03:20:45.259Z,3.10
2018-08-04T03:21:45.232Z,3.00
2018-08-04T03:22:45.188Z,3.20
2018-08-04T03:23:45.176Z,2.90
2018-08-04T03:24:45.127Z,3.40
2018-08-04T03:25:45.092Z,3.10
2018-08-04T03:26:45.055Z,3.30
2018-08-04T03:27:45.043Z,3.50
2018-08-04T03:28:45.047Z,3.50
2018-08-04T03:29:44.956Z,3.20
2018-08-04T03:30:44.924Z,3.30
2018-08-04T03:31:44.983Z,3.00
2018-08-04T03:32:44.965Z,3.30
2018-08-04T03:33:44.804Z,3.20
2018-08-04T03:34:44.786Z,3.20
2018-08-04T03:35:44.728Z,3.10
2018-08-04T03:36:44.703Z,3.10
2018-08-04T03:37:44.667Z,3.30
2018-08-04T03:38:44.634Z,3.30
2018-08-04T03:39:44.619Z,3.30
2018-08-04T03:40:44.553Z,3.00
2018-08-04T03:41:44.520Z,2.80
2018-08-04T03:42:44.483Z,3.00
2018-08-04T03:43:44.445Z,2.90
2018-08-04T03:44:44.439Z,2.80
2018-08-04T03:45:44.382Z,2.80
2018-08-04T03:46:44.351Z,2.90
2018-08-04T03:47:44.313Z,2.60
2018-08-04T03:48:44.270Z,2.90
2018-08-04T03:49:44.268Z,3.00
2018-08-04T03:50:44.207Z,2.70
2018-08-04T03:51:44.177Z,2.60
2018-08-04T03:52:44.127Z,2.80
2018-08-04T03:53:44.093Z,2.70
2018-08-04T03:54:44.064Z,2.80
2018-08-04T03:55:44.065Z,2.70
2018-08-04T03:56:43.992Z,2.80
2018-08-04T03:57:43.960Z,2.80
2018-08-04T03:58:43.922Z,3.00
2018-08-04T03:59:43.987Z,2.70
2018-08-04T04:00:43.848Z,2.80
2018-08-04T04:01:43.814Z,2.80
2018-08-04T04:02:43.777Z,2.70
2018-08-04T04:03:43.741Z,2.90
2018-08-04T04:04:43.734Z,2.80
2018-08-04T04:05:43.690Z,3.00
2018-08-04T04:06:43.667Z,2.90
2018-08-04T04:07:43.599Z,2.90
2018-08-04T04:08:43.568Z,2.60
2018-08-04T04:09:43.575Z,2.70
2018-08-04T04:10:43.500Z,2.70
2018-08-04T04:11:43.459Z,2.60
2018-08-04T04:12:43.420Z,2.80
2018-08-04T04:13:43.386Z,2.40
2018-08-04T04:14:43.347Z,2.60
2018-08-04T04:15:43.345Z,2.70
2018-08-04T04:16:43.281Z,2.70
2018-08-04T04:17:43.248Z,2.90
2018-08-04T04:18:43.213Z,2.90
2018-08-04T04:19:43.169Z,2.50
2018-08-04T04:20:43.158Z,2.70
2018-08-04T04:21:43.108Z,2.90
2018-08-04T04:22:43.076Z,2.50
2018-08-04T04:23:43.037Z,2.80
2018-08-04T04:24:42.997Z,2.80
2018-08-04T04:25:42.988Z,2.50
2018-08-04T04:26:42.926Z,2.50
2018-08-04T04:27:42.894Z,2.60
2018-08-04T04:28:42.860Z,2.50
2018-08-04T04:29:42.868Z,2.80
2018-08-04T04:30:42.787Z,2.80
2018-08-04T04:31:42.771Z,2.40
2018-08-04T04:32:42.710Z,2.70
2018-08-04T04:33:42.677Z,2.70
2018-08-04T04:34:42.642Z,2.40
2018-08-04T04:35:42.619Z,2.30
2018-08-04T04:36:42.600Z,2.40
2018-08-04T04:37:42.532Z,2.50
2018-08-04T04:38:42.509Z,2.60
2018-08-04T04:39:42.477Z,2.30
2018-08-04T04:40:42.474Z,2.20
2018-08-04T04:41:42.426Z,2.30
2018-08-04T04:42:42.365Z,2.30
2018-08-04T04:43:42.324Z,2.40
2018-08-04T04:44:42.290Z,2.20
2018-08-04T04:45:42.261Z,2.40
2018-08-04T04:46:42.238Z,2.30
2018-08-04T04:47:42.208Z,2.20
2018-08-04T04:48:42.149Z,2.30
2018-08-04T04:49:42.114Z,2.40
2018-08-04T04:50:42.076Z,2.40
2018-08-04T04:51:42.049Z,2.30
2018-08-04T04:52:42.042Z,2.40
2018-08-04T04:53:41.972Z,2.20
2018-08-04T04:54:41.935Z,2.30
2018-08-04T04:55:41.907Z,2.40
2018-08-04T04:56:41.876Z,2.40
2018-08-04T04:57:41.861Z,2.20
2018-08-04T04:58:41.802Z,2.40
2018-08-04T04:59:41.758Z,2.70
2018-08-04T05:00:41.725Z,2.20
2018-08-04T05:01:41.697Z,2.50
2018-08-04T05:02:41.684Z,2.40
2018-08-04T05:03:41.633Z,2.20
2018-08-04T05:04:41.591Z,2.30
2018-08-04T05:05:41.557Z,2.60
2018-08-04T05:06:41.527Z,2.30
2018-08-04T05:07:41.480Z,2.10
2018-08-04T05:08:41.528Z,2.30
2018-08-04T05:09:41.415Z,2.50
2018-08-04T05:10:41.383Z,2.30
2018-08-04T05:11:41.344Z,2.30
2018-08-04T05:12:41.307Z,2.50
2018-08-04T05:13:41.296Z,2.30
2018-08-04T05:14:41.239Z,2.30
2018-08-04T05:15:41.208Z,2.40
2018-08-04T05:16:41.175Z,2.40
2018-08-04T05:17:41.144Z,2.30
2018-08-04T05:18:41.149Z,2.50
2018-08-04T05:19:41.067Z,2.30
2018-08-04T05:20:41.026Z,2.20
2018-08-04T05:21:41.019Z,2.30
2018-08-04T05:22:40.954Z,2.40
2018-08-04T05:23:40.930Z,2.20
2018-08-04T05:24:40.919Z,2.20
2018-08-04T05:25:40.851Z,2.20
2018-08-04T05:26:40.816Z,2.20
2018-08-04T05:27:40.787Z,2.50
2018-08-04T05:28:40.753Z,2.20
2018-08-04T05:29:40.739Z,2.70
2018-08-04T05:30:40.706Z,2.20
2018-08-04T05:31:40.641Z,2.20
2018-08-04T05:32:40.607Z,2.20
2018-08-04T05:33:40.599Z,2.40
2018-08-04T05:34:40.566Z,2.20
2018-08-04T05:35:40.506Z,2.20
2018-08-04T05:36:40.478Z,2.20
2018-08-04T05:37:40.441Z,2.20
2018-08-04T05:38:40.418Z,2.40
2018-08-04T05:39:40.369Z,2.20
2018-08-04T05:40:40.349Z,2.30
2018-08-04T05:41:40.302Z,2.10
2018-08-04T05:42:40.269Z,2.30
2018-08-04T05:43:40.310Z,2.10
2018-08-04T05:44:40.196Z,2.00
2018-08-04T05:45:40.180Z,2.10
2018-08-04T05:46:40.127Z,2.20
2018-08-04T05:47:40.113Z,2.50
2018-08-04T05:48:40.066Z,2.20
2018-08-04T05:49:40.029Z,2.30
2018-08-04T05:50:40.021Z,2.00
2018-08-04T05:51:39.954Z,2.30
2018-08-04T05:52:39.926Z,2.20
2018-08-04T05:53:39.889Z,2.40
2018-08-04T05:54:39.858Z,2.20
2018-08-04T05:55:39.856Z,2.60
2018-08-04T05:56:39.792Z,2.40
2018-08-04T05:57:39.752Z,2.50
2018-08-04T05:58:39.718Z,2.20
2018-08-04T05:59:39.691Z,2.40
2018-08-04T06:00:39.697Z,2.10
2018-08-04T06:01:39.646Z,2.50
2018-08-04T06:02:39.592Z,2.30
2018-08-04T06:03:39.547Z,2.40
2018-08-04T06:04:39.515Z,2.50
2018-08-04T06:05:39.484Z,2.30
2018-08-04T06:06:39.500Z,2.30
2018-08-04T06:07:39.415Z,2.50
2018-08-04T06:08:39.383Z,2.20
2018-08-04T06:09:39.360Z,2.30
2018-08-04T06:10:39.399Z,2.20
2018-08-04T06:11:39.382Z,2.10
2018-08-04T06:12:39.244Z,2.10
2018-08-04T06:13:39.214Z,2.30
2018-08-04T06:14:39.180Z,2.10
2018-08-04T06:15:39.142Z,2.30
2018-08-04T06:16:39.107Z,2.30
2018-08-04T06:17:39.094Z,2.50
2018-08-04T06:18:39.038Z,2.30
2018-08-04T06:19:39.011Z,2.60
2018-08-04T06:20:38.976Z,2.30
2018-08-04T06:21:38.940Z,2.40
2018-08-04T06:22:39.020Z,2.10
2018-08-04T06:23:38.867Z,2.30
2018-08-04T06:24:38.876Z,2.50
2018-08-04T06:25:38.845Z,2.10
2018-08-04T06:26:38.788Z,2.30
2018-08-04T06:27:38.830Z,2.30
2018-08-04T06:28:38.725Z,2.50
2018-08-04T06:29:38.672Z,2.40
2018-08-04T06:30:38.743Z,2.20
2018-08-04T06:31:38.622Z,2.20
2018-08-04T06:32:38.580Z,1.90
2018-08-04T06:33:38.594Z,2.40
2018-08-04T06:34:38.505Z,2.10
2018-08-04T06:35:38.461Z,2.00
2018-08-04T06:36:38.439Z,2.00
2018-08-04T06:37:38.422Z,2.10
2018-08-04T06:38:38.390Z,2.00
2018-08-04T06:39:38.401Z,1.90
2018-08-04T06:40:38.307Z,2.30
2018-08-04T06:41:38.290Z,2.00
2018-08-04T06:42:38.259Z,2.30
2018-08-04T06:43:38.195Z,2.10
2018-08-04T06:44:38.171Z,1.90
2018-08-04T06:45:38.142Z,2.00
2018-08-04T06:46:38.108Z,2.10
2018-08-04T06:47:38.110Z,2.00
2018-08-04T06:48:38.033Z,2.10
2018-08-04T06:49:38.004Z,2.00
2018-08-04T06:50:37.968Z,2.00
2018-08-04T06:51:37.940Z,2.20
2018-08-04T06:52:37.928Z,2.10
2018-08-04T06:53:37.875Z,2.00
2018-08-04T06:54:37.845Z,2.20
2018-08-04T06:55:37.802Z,2.20
2018-08-04T06:56:37.767Z,2.10
2018-08-04T06:57:37.756Z,2.10
2018-08-04T06:58:37.705Z,2.00
2018-08-04T06:59:37.674Z,2.00
2018-08-04T07:00:37.641Z,1.90
2018-08-04T07:01:37.601Z,2.00
2018-08-04T07:02:37.591Z,1.90
2018-08-04T07:03:37.540Z,2.10
2018-08-04T07:04:37.512Z,2.00
2018-08-04T07:05:37.480Z,2.10
2018-08-04T07:06:37.441Z,2.30
2018-08-04T07:07:37.431Z,2.00
2018-08-04T07:08:37.370Z,1.90
2018-08-04T07:09:37.338Z,2.00
2018-08-04T07:10:37.308Z,1.90
2018-08-04T07:11:37.278Z,2.00
2018-08-04T07:12:37.254Z,1.90
2018-08-04T07:13:37.246Z,2.00
2018-08-04T07:14:37.184Z,1.90
2018-08-04T07:15:37.144Z,1.90
2018-08-04T07:16:47.494Z,2.10
2018-08-04T07:17:37.082Z,1.90
2018-08-04T07:18:37.068Z,2.00
2018-08-04T07:19:37.018Z,1.90
2018-08-04T07:20:36.983Z,1.90
2018-08-04T07:21:36.958Z,1.90
2018-08-04T07:22:36.931Z,1.90
2018-08-04T07:23:36.928Z,2.00
2018-08-04T07:24:36.865Z,2.00
2018-08-04T07:25:36.835Z,1.90
2018-08-04T07:26:36.796Z,2.10
2018-08-04T07:27:36.765Z,2.00
2018-08-04T07:28:36.733Z,1.80
2018-08-04T07:29:36.732Z,2.10
2018-08-04T07:30:36.677Z,2.10
2018-08-04T07:31:36.639Z,1.80
2018-08-04T07:32:36.617Z,1.90
2018-08-04T07:33:36.590Z,2.00
2018-08-04T07:34:36.585Z,1.90
2018-08-04T07:35:36.527Z,1.80
2018-08-04T07:36:36.503Z,1.80
2018-08-04T07:37:36.458Z,1.90
2018-08-04T07:38:36.430Z,2.00
2018-08-04T07:39:36.417Z,1.90
2018-08-04T07:40:36.366Z,2.00
2018-08-04T07:41:36.348Z,2.00
2018-08-04T07:42:36.315Z,1.80
2018-08-04T07:43:36.283Z,1.90
2018-08-04T07:44:36.283Z,1.90
2018-08-04T07:45:36.220Z,1.80
2018-08-04T07:46:36.185Z,1.90
2018-08-04T07:47:36.193Z,2.10
2018-08-04T07:48:36.142Z,2.00
2018-08-04T07:49:36.094Z,2.00
2018-08-04T07:50:36.091Z,2.00
2018-08-04T07:51:36.034Z,1.90
2018-08-04T07:52:36.007Z,2.00
2018-08-04T07:53:35.992Z,1.90
2018-08-04T07:54:46.048Z,2.10
2018-08-04T07:55:35.945Z,1.80
2018-08-04T07:56:35.887Z,1.80
2018-08-04T07:57:35.859Z,1.80
2018-08-04T07:58:35.830Z,1.80
2018-08-04T07:59:35.807Z,1.90
2018-08-04T08:00:35.804Z,1.70
2018-08-04T08:01:35.746Z,1.80
2018-08-04T08:02:35.715Z,2.00
2018-08-04T08:03:35.695Z,1.90
2018-08-04T08:04:35.662Z,1.80
2018-08-04T08:05:35.641Z,1.80
2018-08-04T08:06:35.628Z,2.00
2018-08-04T08:07:35.572Z,1.80
2018-08-04T08:08:35.543Z,2.10
2018-08-04T08:09:35.516Z,2.30
2018-08-04T08:10:35.569Z,2.20
2018-08-04T08:11:35.489Z,2.00
2018-08-04T08:12:35.436Z,2.00
2018-08-04T08:13:35.410Z,2.00
2018-08-04T08:14:35.384Z,2.00
2018-08-04T08:15:35.347Z,1.80
2018-08-04T08:16:35.340Z,2.00
2018-08-04T08:17:35.299Z,1.80
2018-08-04T08:18:35.271Z,1.70
2018-08-04T08:19:35.238Z,1.90
2018-08-04T08:20:35.205Z,2.00
2018-08-04T08:21:35.210Z,1.90
2018-08-04T08:22:35.152Z,1.90
2018-08-04T08:23:35.136Z,1.90
2018-08-04T08:24:35.111Z,1.80
2018-08-04T08:25:35.084Z,2.00
2018-08-04T08:26:35.048Z,1.90
2018-08-04T08:27:35.044Z,1.90
2018-08-04T08:28:35.017Z,1.80
2018-08-04T08:29:34.968Z,2.00
2018-08-04T08:30:34.952Z,1.90
2018-08-04T08:31:34.975Z,1.80
2018-08-04T08:32:34.918Z,2.00
2018-08-04T08:33:34.865Z,2.00
2018-08-04T08:34:34.847Z,1.80
2018-08-04T08:35:34.821Z,1.80
2018-08-04T08:36:34.788Z,2.00
2018-08-04T08:37:34.796Z,2.00
2018-08-04T08:38:34.735Z,1.70
2018-08-04T08:39:34.709Z,1.80
2018-08-04T08:40:34.704Z,1.90
2018-08-04T08:41:34.661Z,1.90
2018-08-04T08:42:34.637Z,1.90
2018-08-04T08:43:34.638Z,1.70
2018-08-04T08:44:34.584Z,1.80
2018-08-04T08:45:34.564Z,1.70
2018-08-04T08:46:34.531Z,1.90
2018-08-04T08:47:34.505Z,1.80
2018-08-04T08:48:34.505Z,1.80
2018-08-04T08:49:34.461Z,1.60
2018-08-04T08:50:34.436Z,1.80
2018-08-04T08:51:34.404Z,1.60
2018-08-04T08:52:34.383Z,1.90
2018-08-04T08:53:34.506Z,1.80
2018-08-04T08:54:34.338Z,1.70
2018-08-04T08:55:34.320Z,1.70
2018-08-04T08:56:34.288Z,2.00
2018-08-04T08:57:34.262Z,1.80
2018-08-04T08:58:34.234Z,1.70
2018-08-04T08:59:34.249Z,1.60
2018-08-04T09:00:34.186Z,1.90
2018-08-04T09:01:34.164Z,1.70
2018-08-04T09:02:34.148Z,1.70
2018-08-04T09:03:34.122Z,1.80
2018-08-04T09:04:34.109Z,1.70
2018-08-04T09:05:34.067Z,1.90
2018-08-04T09:06:34.048Z,1.70
2018-08-04T09:07:34.025Z,1.60
2018-08-04T09:08:34.038Z,1.70
2018-08-04T09:09:34.001Z,1.50
2018-08-04T09:10:33.947Z,1.60
2018-08-04T09:11:33.922Z,1.70
2018-08-04T09:12:33.904Z,1.60
2018-08-04T09:13:33.876Z,1.50
2018-08-04T09:14:33.884Z,1.50
2018-08-04T09:15:33.897Z,1.60
2018-08-04T09:16:33.815Z,1.50
2018-08-04T09:17:33.795Z,1.50
2018-08-04T09:18:33.757Z,1.70
2018-08-04T09:19:33.734Z,1.60
2018-08-04T09:20:33.749Z,1.70
2018-08-04T09:21:33.708Z,1.60
2018-08-04T09:22:33.668Z,1.60
2018-08-04T09:23:33.644Z,1.60
2018-08-04T09:24:33.646Z,1.70
2018-08-04T09:25:33.596Z,1.50
2018-08-04T09:26:33.579Z,1.50
2018-08-04T09:27:33.552Z,1.70
2018-08-04T09:28:33.533Z,1.80
2018-08-04T09:29:33.615Z,1.40
2018-08-04T09:30:33.504Z,1.70
2018-08-04T09:31:33.455Z,1.70
2018-08-04T09:32:33.431Z,1.50
2018-08-04T09:33:33.410Z,1.70
2018-08-04T09:34:33.395Z,1.50
2018-08-04T09:35:33.397Z,1.70
2018-08-04T09:36:33.341Z,1.50
2018-08-04T09:37:33.319Z,1.50
2018-08-04T09:38:33.300Z,1.60
2018-08-04T09:39:33.279Z,1.40
2018-08-04T09:40:33.280Z,1.50
2018-08-04T09:41:33.227Z,1.60
2018-08-04T09:42:33.201Z,1.60
2018-08-04T09:43:33.180Z,1.50
2018-08-04T09:44:33.160Z,1.80
2018-08-04T09:45:33.155Z,1.90
2018-08-04T09:46:33.116Z,1.70
2018-08-04T09:47:33.095Z,1.50
2018-08-04T09:48:33.070Z,1.40
2018-08-04T09:49:33.052Z,1.70
2018-08-04T09:50:33.043Z,1.40
2018-08-04T09:51:32.999Z,1.50
2018-08-04T09:52:33.045Z,1.80
2018-08-04T09:53:32.959Z,1.50
2018-08-04T09:54:32.929Z,1.60
2018-08-04T09:55:32.936Z,1.80
2018-08-04T09:56:32.886Z,1.60
2018-08-04T09:57:32.875Z,1.50
2018-08-04T09:58:32.852Z,1.60
2018-08-04T09:59:32.862Z,1.70
2018-08-04T10:00:32.825Z,1.70
2018-08-04T10:01:32.784Z,1.40
2018-08-04T10:02:32.750Z,1.70
2018-08-04T10:03:32.728Z,1.70
2018-08-04T10:04:32.710Z,1.60
2018-08-04T10:05:32.704Z,1.60
2018-08-04T10:06:32.675Z,1.80
2018-08-04T10:07:32.648Z,1.80
2018-08-04T10:08:32.619Z,1.80
2018-08-04T10:09:32.596Z,1.80
2018-08-04T10:10:32.605Z,1.70
2018-08-04T10:11:32.568Z,1.60
2018-08-04T10:12:32.548Z,1.90
2018-08-04T10:13:32.523Z,1.80
2018-08-04T10:14:32.497Z,1.70
2018-08-04T10:15:32.497Z,1.60
2018-08-04T10:16:32.450Z,1.80
2018-08-04T10:17:32.431Z,1.70
2018-08-04T10:18:32.417Z,1.90
2018-08-04T10:19:32.397Z,1.60
2018-08-04T10:20:32.412Z,1.70
2018-08-04T10:21:32.352Z,1.80
2018-08-04T10:22:32.324Z,2.00
2018-08-04T10:23:32.304Z,1.80
2018-08-04T10:24:32.286Z,1.60
2018-08-04T10:25:32.288Z,1.70
2018-08-04T10:26:32.241Z,1.90
2018-08-04T10:27:32.213Z,1.80
2018-08-04T10:28:32.201Z,1.90
2018-08-04T10:29:32.174Z,2.20
2018-08-04T10:30:32.183Z,2.10
2018-08-04T10:31:32.135Z,2.20
2018-08-04T10:32:32.173Z,2.10
2018-08-04T10:33:32.095Z,2.20
2018-08-04T10:34:32.071Z,2.30
2018-08-04T10:35:32.064Z,2.40
2018-08-04T10:36:32.017Z,2.10
2018-08-04T10:37:32.000Z,2.20
2018-08-04T10:38:32.033Z,2.20
2018-08-04T10:39:31.958Z,2.20
2018-08-04T10:40:31.949Z,2.30
2018-08-04T10:41:31.917Z,2.10
2018-08-04T10:42:31.895Z,2.00
2018-08-04T10:43:31.876Z,1.90
2018-08-04T10:44:31.852Z,2.10
2018-08-04T10:45:31.843Z,2.40
2018-08-04T10:46:31.803Z,2.30
2018-08-04T10:47:31.778Z,2.20
2018-08-04T10:48:31.759Z,2.70
2018-08-04T10:49:31.808Z,2.20
2018-08-04T10:50:31.741Z,2.40
2018-08-04T10:51:31.699Z,2.20
2018-08-04T10:52:31.672Z,2.10
2018-08-04T10:53:31.646Z,2.30
2018-08-04T10:54:31.675Z,2.10
2018-08-04T10:55:31.636Z,2.10
2018-08-04T10:56:31.585Z,2.20
2018-08-04T10:57:31.558Z,2.10
2018-08-04T10:58:31.549Z,2.00
2018-08-04T10:59:31.509Z,2.00
2018-08-04T11:00:31.557Z,2.00
2018-08-04T11:01:31.481Z,2.20
2018-08-04T11:02:31.454Z,2.20
2018-08-04T11:03:31.431Z,2.00
2018-08-04T11:04:31.400Z,2.00
2018-08-04T11:05:31.404Z,2.30
2018-08-04T11:06:31.364Z,2.00
2018-08-04T11:07:31.344Z,2.10
2018-08-04T11:08:31.321Z,2.10
2018-08-04T11:09:31.301Z,2.00
2018-08-04T11:10:31.298Z,1.80
2018-08-04T11:11:31.248Z,2.10
2018-08-04T11:12:31.265Z,1.70
2018-08-04T11:13:31.219Z,1.80
2018-08-04T11:14:31.196Z,2.00
2018-08-04T11:15:31.197Z,1.90
2018-08-04T11:16:31.143Z,1.90
2018-08-04T11:17:31.129Z,2.00
2018-08-04T11:18:31.104Z,1.80
2018-08-04T11:19:31.088Z,2.00
2018-08-04T11:20:31.090Z,1.80
2018-08-04T11:21:31.046Z,1.80
2018-08-04T11:22:31.032Z,1.90
2018-08-04T11:23:31.008Z,1.80
2018-08-04T11:24:30.983Z,1.70
2018-08-04T11:25:30.990Z,1.70
2018-08-04T11:26:30.950Z,1.70
2018-08-04T11:27:30.947Z,1.70
2018-08-04T11:28:30.899Z,1.70
2018-08-04T11:29:30.877Z,1.80
2018-08-04T11:30:30.861Z,2.00
2018-08-04T11:31:30.886Z,1.70
2018-08-04T11:32:30.844Z,1.90
2018-08-04T11:33:30.804Z,1.80
2018-08-04T11:34:30.790Z,1.90
2018-08-04T11:35:30.760Z,2.10
2018-08-04T11:36:30.760Z,2.00
2018-08-04T11:37:30.714Z,1.90
2018-08-04T11:38:30.709Z,2.00
2018-08-04T11:39:30.676Z,2.00
2018-08-04T11:40:30.660Z,1.90
2018-08-04T11:41:30.642Z,1.80
2018-08-04T11:42:30.635Z,1.80
2018-08-04T11:43:30.598Z,2.00
2018-08-04T11:44:30.582Z,1.80
2018-08-04T11:45:30.616Z,2.10
2018-08-04T11:46:30.543Z,1.70
2018-08-04T11:47:30.542Z,1.90
2018-08-04T11:48:30.493Z,1.70
2018-08-04T11:49:30.475Z,1.70
2018-08-04T11:50:30.452Z,2.10
2018-08-04T11:51:30.483Z,1.90
2018-08-04T11:52:30.442Z,1.90
2018-08-04T11:53:30.411Z,1.70
2018-08-04T11:54:30.382Z,1.80
2018-08-04T11:55:30.367Z,1.70
2018-08-04T11:56:30.334Z,1.90
2018-08-04T11:57:30.340Z,2.00
2018-08-04T11:58:30.343Z,1.80
2018-08-04T11:59:30.279Z,1.90
2018-08-04T12:00:30.284Z,1.70
2018-08-04T12:01:30.235Z,1.60
2018-08-04T12:02:30.219Z,1.90
2018-08-04T12:03:30.216Z,1.80
2018-08-04T12:04:30.173Z,1.70
2018-08-04T12:05:30.160Z,1.70
2018-08-04T12:06:30.134Z,1.80
2018-08-04T12:07:30.112Z,1.70
2018-08-04T12:08:30.111Z,1.70
2018-08-04T12:09:30.063Z,1.80
2018-08-04T12:10:30.042Z,1.60
2018-08-04T12:11:30.024Z,1.70
2018-08-04T12:12:30.046Z,1.50
2018-08-04T12:13:29.987Z,1.70
2018-08-04T12:14:29.964Z,1.60
2018-08-04T12:15:29.935Z,2.00
2018-08-04T12:16:29.932Z,1.90
2018-08-04T12:17:29.902Z,1.70
2018-08-04T12:18:29.911Z,1.70
2018-08-04T12:19:29.859Z,1.70
2018-08-04T12:20:29.834Z,1.70
2018-08-04T12:21:29.809Z,2.10
2018-08-04T12:22:29.793Z,1.90
2018-08-04T12:23:29.792Z,1.90
2018-08-04T12:24:29.756Z,2.00
2018-08-04T12:25:29.748Z,2.00
2018-08-04T12:26:29.713Z,1.70
2018-08-04T12:27:29.697Z,1.80
2018-08-04T12:28:29.689Z,1.70
2018-08-04T12:29:29.653Z,1.60
2018-08-04T12:30:29.633Z,1.70
2018-08-04T12:31:29.660Z,1.70
2018-08-04T12:32:29.584Z,1.80
2018-08-04T12:33:29.588Z,1.60
2018-08-04T12:34:29.545Z,1.60
2018-08-04T12:35:29.523Z,1.70
2018-08-04T12:36:29.512Z,1.60
2018-08-04T12:37:29.510Z,1.70
2018-08-04T12:38:29.500Z,1.60
2018-08-04T12:39:29.446Z,1.70
2018-08-04T12:40:29.418Z,1.60
2018-08-04T12:41:29.403Z,1.90
2018-08-04T12:42:29.381Z,1.90
2018-08-04T12:43:29.378Z,1.50
2018-08-04T12:44:29.341Z,1.80
2018-08-04T12:45:29.350Z,1.90
2018-08-04T12:46:29.353Z,1.80
2018-08-04T12:47:29.272Z,1.90
2018-08-04T12:48:29.301Z,1.90
2018-08-04T12:49:29.342Z,1.90
2018-08-04T12:50:29.347Z,1.90
2018-08-04T12:51:29.215Z,1.70
2018-08-04T12:52:29.169Z,1.80
2018-08-04T12:53:29.153Z,2.10
2018-08-04T12:54:29.160Z,1.80
2018-08-04T12:55:29.107Z,2.00
2018-08-04T12:56:29.095Z,1.90
2018-08-04T12:57:29.081Z,2.10
2018-08-04T12:58:29.083Z,2.00
2018-08-04T12:59:29.079Z,1.90
2018-08-04T13:00:29.007Z,2.00
2018-08-04T13:01:28.984Z,1.70
2018-08-04T13:02:29.005Z,2.00
2018-08-04T13:03:28.949Z,1.90
2018-08-04T13:04:28.949Z,1.70
2018-08-04T13:05:28.904Z,2.00
2018-08-04T13:06:28.883Z,1.80
2018-08-04T13:07:28.859Z,1.90
2018-08-04T13:08:28.847Z,1.70
2018-08-04T13:09:28.832Z,1.90
2018-08-04T13:10:28.841Z,2.10
2018-08-04T13:11:28.795Z,1.80
2018-08-04T13:12:28.756Z,2.00
2018-08-04T13:13:28.737Z,1.80
2018-08-04T13:14:28.712Z,1.80
2018-08-04T13:15:28.715Z,1.70
2018-08-04T13:16:28.681Z,2.00
2018-08-04T13:17:28.665Z,1.90
2018-08-04T13:18:28.629Z,1.90